createdAt,value
2023-04-07T00:00:18.087Z,7.02
2023-04-07T00:02:46.969Z,7.02
2023-04-07T00:05:14.553Z,7.06
2023-04-07T00:07:52.980Z,7.05
2023-04-07T00:10:26.212Z,7.06
2023-04-07T00:12:53.863Z,7.07
2023-04-07T00:15:22.361Z,7.04
2023-04-07T00:17:50.334Z,7.05
2023-04-07T00:20:17.987Z,7.05
2023-04-07T00:22:45.613Z,7.07
2023-04-07T00:25:14.086Z,7.10
2023-04-07T00:27:43.955Z,7.09
2023-04-07T00:30:12.016Z,7.09
2023-04-07T00:32:39.745Z,7.08
2023-04-07T00:35:08.086Z,7.06
2023-04-07T00:37:35.969Z,7.08
2023-04-07T00:40:04.101Z,7.08
2023-04-07T00:42:31.783Z,7.09
2023-04-07T00:45:01.085Z,7.10
2023-04-07T00:47:28.676Z,7.11
2023-04-07T00:49:57.973Z,7.12
2023-04-07T00:52:29.896Z,7.12
2023-04-07T00:54:58.101Z,7.14
2023-04-07T00:57:25.850Z,7.10
2023-04-07T00:59:54.258Z,7.09
2023-04-07T01:02:33.234Z,7.10
2023-04-07T01:05:10.663Z,7.10
2023-04-07T01:07:48.683Z,7.10
2023-04-07T01:10:21.920Z,7.11
2023-04-07T01:13:03.793Z,7.11
2023-04-07T01:15:34.797Z,7.11
2023-04-07T01:18:11.535Z,7.08
2023-04-07T01:20:40.937Z,7.08
2023-04-07T01:23:09.226Z,7.08
2023-04-07T01:25:56.052Z,7.08
2023-04-07T01:28:42.361Z,7.09
2023-04-07T01:31:13.774Z,7.07
2023-04-07T01:33:46.972Z,7.06
2023-04-07T01:36:20.210Z,7.06
2023-04-07T01:38:50.400Z,7.05
2023-04-07T01:41:19.493Z,7.06
2023-04-07T01:43:49.812Z,7.07
2023-04-07T01:46:18.972Z,7.05
2023-04-07T01:48:48.144Z,7.05
2023-04-07T01:51:19.056Z,7.05
2023-04-07T01:53:47.166Z,7.04
2023-04-07T01:56:16.644Z,7.04
2023-04-07T01:58:47.470Z,7.06
2023-04-07T02:01:19.598Z,7.07
2023-04-07T02:03:54.296Z,7.06
2023-04-07T02:06:28.040Z,7.06
2023-04-07T02:09:00.783Z,7.07
2023-04-07T02:11:30.241Z,7.08
2023-04-07T02:19:02.956Z,7.08
2023-04-07T02:21:58.985Z,7.07
2023-04-07T02:24:26.654Z,7.09
2023-04-07T02:26:54.229Z,7.08
2023-04-07T02:29:22.091Z,7.09
2023-04-07T02:31:49.676Z,7.09
2023-04-07T02:34:17.502Z,7.10
2023-04-07T02:36:45.973Z,7.11
2023-04-07T02:39:41.942Z,7.14
2023-04-07T02:42:12.347Z,7.13
2023-04-07T02:45:11.990Z,7.14
2023-04-07T02:47:41.610Z,7.15
2023-04-07T02:50:09.790Z,7.15
2023-04-07T02:52:38.975Z,7.16
2023-04-07T02:55:13.907Z,7.15
2023-04-07T02:57:43.965Z,7.16
2023-04-07T03:00:21.895Z,7.17
2023-04-07T03:02:58.886Z,7.17
2023-04-07T03:05:29.575Z,7.16
2023-04-07T03:07:57.184Z,7.16
2023-04-07T03:10:27.085Z,7.17
2023-04-07T03:12:56.627Z,7.15
2023-04-07T03:18:17.500Z,7.13
2023-04-07T03:20:47.489Z,7.15
2023-04-07T03:23:15.972Z,7.14
2023-04-07T03:25:46.360Z,7.15
2023-04-07T03:28:45.008Z,7.16
2023-04-07T03:31:14.981Z,7.11
2023-04-07T03:33:43.968Z,7.11
2023-04-07T03:36:13.882Z,7.10
2023-04-07T03:38:42.414Z,7.09
2023-04-07T03:41:11.353Z,7.13
2023-04-07T03:43:40.392Z,7.12
2023-04-07T03:46:08.483Z,7.12
2023-04-07T03:48:36.557Z,7.14
2023-04-07T03:51:09.516Z,7.14
2023-04-07T03:53:39.060Z,7.15
2023-04-07T03:56:29.110Z,7.15
2023-04-07T03:58:58.983Z,7.17
2023-04-07T04:01:37.713Z,7.13
2023-04-07T04:04:11.950Z,7.14
2023-04-07T04:06:40.126Z,7.14
2023-04-07T04:09:17.638Z,7.15
2023-04-07T04:11:49.914Z,7.15
2023-04-07T04:14:23.003Z,7.15
2023-04-07T04:16:56.599Z,7.14
2023-04-07T04:19:35.462Z,7.13
2023-04-07T04:22:10.678Z,7.10
2023-04-07T04:24:48.358Z,7.11
2023-04-07T04:27:17.402Z,7.10
2023-04-07T04:29:48.771Z,7.10
2023-04-07T04:32:19.073Z,7.11
2023-04-07T04:34:46.713Z,7.13
2023-04-07T04:37:16.191Z,7.13
2023-04-07T04:39:47.007Z,7.14
2023-04-07T04:42:20.100Z,7.13
2023-04-07T04:44:48.962Z,7.15
2023-04-07T04:47:20.583Z,7.13
2023-04-07T04:49:48.915Z,7.11
2023-04-07T04:52:16.924Z,7.11
2023-04-07T04:54:48.040Z,7.11
2023-04-07T04:57:16.999Z,7.11
2023-04-07T04:59:46.352Z,7.11
2023-04-07T05:02:14.877Z,7.13
2023-04-07T05:04:43.299Z,7.13
2023-04-07T05:07:22.205Z,7.13
2023-04-07T05:09:49.886Z,7.14
2023-04-07T05:12:22.307Z,7.13
2023-04-07T05:14:57.703Z,7.13
2023-04-07T05:17:51.285Z,7.14
2023-04-07T05:20:24.082Z,7.13
2023-04-07T05:22:52.409Z,7.12
2023-04-07T05:25:23.068Z,7.11
2023-04-07T05:27:54.759Z,7.13
2023-04-07T05:30:24.387Z,7.13
2023-04-07T05:32:53.611Z,7.11
2023-04-07T05:35:37.089Z,7.12
2023-04-07T05:38:04.734Z,7.14
2023-04-07T05:40:33.155Z,7.16
2023-04-07T05:43:05.597Z,7.16
2023-04-07T05:45:38.175Z,7.16
2023-04-07T05:48:07.167Z,7.16
2023-04-07T05:50:42.327Z,7.17
2023-04-07T05:53:13.468Z,7.17
2023-04-07T05:55:45.577Z,7.18
2023-04-07T05:58:21.135Z,7.18
2023-04-07T06:00:56.972Z,7.18
2023-04-07T06:03:24.939Z,7.19
2023-04-07T06:06:01.175Z,7.20
2023-04-07T06:08:29.948Z,7.22
2023-04-07T06:10:57.843Z,7.26
2023-04-07T06:13:25.454Z,7.25
2023-04-07T06:15:59.019Z,7.25
2023-04-07T06:18:26.824Z,7.28
2023-04-07T06:20:55.642Z,7.27
2023-04-07T06:23:23.265Z,7.31
2023-04-07T06:25:53.063Z,7.30
2023-04-07T06:28:23.717Z,7.31
2023-04-07T06:30:52.098Z,7.31
2023-04-07T06:33:25.467Z,7.32
2023-04-07T06:35:53.120Z,7.33
2023-04-07T06:38:20.862Z,7.37
2023-04-07T06:40:48.451Z,7.42
2023-04-07T06:43:16.153Z,7.42
2023-04-07T06:45:52.092Z,7.44
2023-04-07T06:48:19.925Z,7.46
2023-04-07T06:50:50.795Z,7.46
2023-04-07T06:53:18.439Z,7.47
2023-04-07T06:55:46.495Z,7.48
2023-04-07T06:58:17.400Z,7.53
2023-04-07T07:00:47.102Z,7.53
2023-04-07T07:03:16.123Z,7.55
2023-04-07T07:05:44.208Z,7.59
2023-04-07T07:08:13.124Z,7.60
2023-04-07T07:10:41.475Z,7.63
2023-04-07T07:13:09.008Z,7.67
2023-04-07T07:15:36.633Z,7.70
2023-04-07T07:18:04.378Z,7.70
2023-04-07T07:20:32.035Z,7.70
2023-04-07T07:22:59.816Z,7.72
2023-04-07T07:25:28.920Z,7.74
2023-04-07T07:27:56.591Z,7.82
2023-04-07T07:30:25.971Z,7.80
2023-04-07T07:32:55.045Z,7.81
2023-04-07T07:35:25.460Z,7.84
2023-04-07T07:37:53.821Z,7.90
2023-04-07T07:40:48.617Z,7.93
2023-04-07T07:43:17.924Z,7.95
2023-04-07T07:45:46.556Z,8.01
2023-04-07T07:48:14.146Z,7.97
2023-04-07T07:50:42.500Z,7.96
2023-04-07T07:53:10.608Z,7.95
2023-04-07T07:55:38.191Z,7.98
2023-04-07T07:58:07.118Z,7.98
2023-04-07T08:00:37.390Z,8.01
2023-04-07T08:03:06.533Z,8.04
2023-04-07T08:05:34.144Z,8.09
2023-04-07T08:08:02.981Z,8.10
2023-04-07T08:10:31.128Z,8.13
2023-04-07T08:12:58.723Z,8.16
2023-04-07T08:15:29.086Z,8.15
2023-04-07T08:17:56.988Z,8.17
2023-04-07T08:20:24.734Z,8.20
2023-04-07T08:22:52.577Z,8.18
2023-04-07T08:25:21.002Z,8.18
2023-04-07T08:27:48.588Z,8.20
2023-04-07T08:30:16.764Z,8.23
2023-04-07T08:32:46.297Z,8.22
2023-04-07T08:35:18.129Z,8.24
2023-04-07T08:37:49.453Z,8.25
2023-04-07T08:40:17.730Z,8.29
2023-04-07T08:42:48.354Z,8.29
2023-04-07T08:45:18.598Z,8.30
2023-04-07T08:47:48.510Z,8.36
2023-04-07T08:50:19.069Z,8.38
2023-04-07T08:52:50.820Z,8.36
2023-04-07T08:55:18.499Z,8.36
2023-04-07T08:57:47.984Z,8.39
2023-04-07T09:00:18.994Z,8.45
2023-04-07T09:02:49.427Z,8.47
2023-04-07T09:05:17.285Z,8.50
2023-04-07T09:07:44.995Z,8.52
2023-04-07T09:10:14.465Z,8.55
2023-04-07T09:12:42.271Z,8.60
2023-04-07T09:15:10.234Z,8.62
2023-04-07T09:17:39.115Z,8.62
2023-04-07T09:20:09.646Z,8.62
2023-04-07T09:22:38.921Z,8.68
2023-04-07T09:25:15.509Z,8.66
2023-04-07T09:27:57.108Z,8.68
2023-04-07T09:30:24.829Z,8.70
2023-04-07T09:32:52.724Z,8.70
2023-04-07T09:35:23.342Z,8.70
2023-04-07T09:38:05.756Z,8.71
2023-04-07T09:40:34.990Z,8.74
2023-04-07T09:43:04.080Z,8.75
2023-04-07T09:45:36.229Z,8.74
2023-04-07T09:48:09.250Z,8.71
2023-04-07T09:50:45.779Z,8.69
2023-04-07T09:53:13.359Z,8.68
2023-04-07T09:55:41.608Z,8.65
2023-04-07T09:58:13.043Z,8.65
2023-04-07T10:00:42.972Z,8.64
2023-04-07T10:03:16.263Z,8.62
2023-04-07T10:05:46.794Z,8.64
2023-04-07T10:08:15.321Z,8.64
2023-04-07T10:10:46.117Z,8.65
2023-04-07T10:13:18.511Z,8.61
2023-04-07T10:16:11.499Z,8.56
2023-04-07T10:18:44.992Z,8.60
2023-04-07T10:21:18.378Z,8.63
2023-04-07T10:23:54.087Z,8.68
2023-04-07T10:26:53.013Z,8.65
2023-04-07T10:29:22.015Z,8.66
2023-04-07T10:31:50.283Z,8.63
2023-04-07T10:34:18.136Z,8.63
2023-04-07T10:37:13.250Z,8.66
2023-04-07T10:39:41.458Z,8.63
2023-04-07T10:42:09.001Z,8.67
2023-04-07T10:44:48.196Z,8.72
2023-04-07T10:47:16.193Z,8.76
2023-04-07T10:50:16.516Z,8.80
2023-04-07T10:52:46.054Z,8.88
2023-04-07T10:55:34.823Z,8.87
2023-04-07T10:58:18.458Z,8.85
2023-04-07T11:01:15.988Z,8.83
2023-04-07T11:03:54.415Z,8.88
2023-04-07T11:06:51.120Z,8.91
2023-04-07T11:09:21.577Z,8.95
2023-04-07T11:11:51.563Z,8.99
2023-04-07T11:14:31.632Z,9.01
2023-04-07T11:17:02.009Z,9.05
2023-04-07T11:19:30.286Z,9.10
2023-04-07T11:22:28.601Z,9.14
2023-04-07T11:24:59.139Z,9.18
2023-04-07T11:27:28.382Z,9.25
2023-04-07T11:29:57.628Z,9.26
2023-04-07T11:32:27.034Z,9.22
2023-04-07T11:34:56.760Z,9.23
2023-04-07T11:37:28.763Z,9.25
2023-04-07T11:39:56.786Z,9.31
2023-04-07T11:42:37.993Z,9.38
2023-04-07T11:45:08.304Z,9.34
2023-04-07T11:47:37.072Z,9.32
2023-04-07T11:50:04.977Z,9.29
2023-04-07T11:52:42.075Z,9.32
2023-04-07T11:55:22.062Z,9.36
2023-04-07T11:57:52.228Z,9.33
2023-04-07T12:00:21.275Z,9.30
2023-04-07T12:02:49.093Z,9.34
2023-04-07T12:05:17.078Z,9.31
2023-04-07T12:07:54.160Z,9.32
2023-04-07T12:10:23.649Z,9.35
2023-04-07T12:12:53.348Z,9.41
2023-04-07T12:15:22.818Z,9.40
2023-04-07T12:17:50.644Z,9.38
2023-04-07T12:20:18.996Z,9.39
2023-04-07T12:22:47.992Z,9.44
2023-04-07T12:25:15.803Z,9.49
2023-04-07T12:27:44.035Z,9.47
2023-04-07T12:30:13.901Z,9.44
2023-04-07T12:32:41.809Z,9.42
2023-04-07T12:35:09.463Z,9.44
2023-04-07T12:37:38.612Z,9.46
2023-04-07T12:40:07.325Z,9.49
2023-04-07T12:42:34.960Z,9.54
2023-04-07T12:45:03.151Z,9.57
2023-04-07T12:47:33.821Z,9.58
2023-04-07T12:50:01.779Z,9.57
2023-04-07T12:52:29.348Z,9.60
2023-04-07T12:54:57.027Z,9.60
2023-04-07T12:57:24.832Z,9.59
2023-04-07T12:59:53.151Z,9.57
2023-04-07T13:02:21.143Z,9.61
2023-04-07T13:04:50.132Z,9.63
2023-04-07T13:07:17.698Z,9.65
2023-04-07T13:09:45.408Z,9.70
2023-04-07T13:12:14.117Z,9.70
2023-04-07T13:14:52.843Z,9.77
2023-04-07T13:17:28.688Z,9.82
2023-04-07T13:19:57.707Z,9.88
2023-04-07T13:22:25.369Z,9.89
2023-04-07T13:24:53.509Z,9.99
2023-04-07T13:27:21.125Z,9.94
2023-04-07T13:29:48.842Z,9.95
2023-04-07T13:32:16.941Z,9.99
2023-04-07T13:34:44.836Z,10.06
2023-04-07T13:37:13.799Z,10.08
2023-04-07T13:39:41.408Z,10.12
2023-04-07T13:42:11.468Z,10.15
2023-04-07T13:44:41.033Z,10.15
2023-04-07T13:47:09.142Z,10.16
2023-04-07T13:49:36.794Z,10.20
2023-04-07T13:52:05.114Z,10.24
2023-04-07T13:54:34.005Z,10.25
2023-04-07T13:57:01.698Z,10.26
2023-04-07T13:59:29.269Z,10.30
2023-04-07T14:01:57.263Z,10.33
2023-04-07T14:04:27.263Z,10.32
2023-04-07T14:06:55.985Z,10.33
2023-04-07T14:09:23.993Z,10.36
2023-04-07T14:11:52.871Z,10.34
2023-04-07T14:14:21.230Z,10.34
2023-04-07T14:16:50.914Z,10.32
2023-04-07T14:19:18.740Z,10.31
2023-04-07T14:21:46.678Z,10.33
2023-04-07T14:24:14.225Z,10.35
2023-04-07T14:26:44.020Z,10.33
2023-04-07T14:29:17.983Z,10.37
2023-04-07T14:31:48.478Z,10.36
2023-04-07T14:34:16.366Z,10.33
2023-04-07T14:36:54.563Z,10.34
2023-04-07T14:39:22.693Z,10.34
2023-04-07T14:41:50.842Z,10.34
2023-04-07T14:44:19.986Z,10.33
2023-04-07T14:46:49.158Z,10.35
2023-04-07T14:49:17.001Z,10.36
2023-04-07T14:51:46.286Z,10.41
2023-04-07T14:54:13.940Z,10.42
2023-04-07T14:56:42.009Z,10.43
2023-04-07T14:59:10.044Z,10.43
2023-04-07T15:01:39.902Z,10.42
2023-04-07T15:04:07.545Z,10.43
2023-04-07T15:06:37.003Z,10.43
2023-04-07T15:09:04.800Z,10.45
2023-04-07T15:11:33.523Z,10.45
2023-04-07T15:14:01.701Z,10.39
2023-04-07T15:16:29.326Z,10.39
2023-04-07T15:19:02.019Z,10.42
2023-04-07T15:21:33.215Z,10.46
2023-04-07T15:24:00.820Z,10.46
2023-04-07T15:26:28.340Z,10.47
2023-04-07T15:28:56.185Z,10.50
2023-04-07T15:31:26.957Z,10.53
2023-04-07T15:33:57.412Z,10.52
2023-04-07T15:36:27.306Z,10.53
2023-04-07T15:38:55.538Z,10.58
2023-04-07T15:41:23.552Z,10.57
2023-04-07T15:43:52.025Z,10.52
2023-04-07T15:46:19.697Z,10.52
2023-04-07T15:48:47.924Z,10.54
2023-04-07T15:51:15.656Z,10.56
2023-04-07T15:53:44.676Z,10.59
2023-04-07T15:56:13.741Z,10.61
2023-04-07T15:58:41.563Z,10.62
2023-04-07T16:01:09.514Z,10.63
2023-04-07T16:03:37.233Z,10.65
2023-04-07T16:06:06.023Z,10.67
2023-04-07T16:08:34.022Z,10.67
2023-04-07T16:11:03.506Z,10.68
2023-04-07T16:13:36.024Z,10.72
2023-04-07T16:16:07.371Z,10.69
2023-04-07T16:18:35.660Z,10.67
2023-04-07T16:21:04.765Z,10.67
2023-04-07T16:23:32.447Z,10.67
2023-04-07T16:26:01.010Z,10.68
2023-04-07T16:28:30.101Z,10.67
2023-04-07T16:30:57.685Z,10.67
2023-04-07T16:33:26.206Z,10.65
2023-04-07T16:35:53.989Z,10.64
2023-04-07T16:38:22.966Z,10.64
2023-04-07T16:41:03.247Z,10.64
2023-04-07T16:43:33.301Z,10.62
2023-04-07T16:46:01.063Z,10.61
2023-04-07T16:48:29.492Z,10.60
2023-04-07T16:50:57.077Z,10.58
2023-04-07T16:53:24.819Z,10.57
2023-04-07T16:55:52.411Z,10.55
2023-04-07T16:58:20.128Z,10.54
2023-04-07T17:00:49.058Z,10.51
2023-04-07T17:03:16.810Z,10.50
2023-04-07T17:05:46.982Z,10.49
2023-04-07T17:08:16.145Z,10.45
2023-04-07T17:10:43.743Z,10.42
2023-04-07T17:13:11.448Z,10.41
2023-04-07T17:15:39.041Z,10.38
2023-04-07T17:18:08.089Z,10.34
2023-04-07T17:20:35.682Z,10.35
2023-04-07T17:23:03.502Z,10.33
2023-04-07T17:25:33.189Z,10.31
2023-04-07T17:28:02.133Z,10.29
2023-04-07T17:30:29.689Z,10.26
2023-04-07T17:32:59.017Z,10.23
2023-04-07T17:35:27.962Z,10.19
2023-04-07T17:37:57.152Z,10.17
2023-04-07T17:40:25.543Z,10.16
2023-04-07T17:42:55.009Z,10.14
2023-04-07T17:45:25.401Z,10.11
2023-04-07T17:47:54.766Z,10.11
2023-04-07T17:50:22.421Z,10.07
2023-04-07T17:52:51.881Z,10.07
2023-04-07T17:55:20.996Z,10.04
2023-04-07T17:57:48.544Z,10.01
2023-04-07T18:00:16.602Z,9.98
2023-04-07T18:02:46.159Z,9.97
2023-04-07T18:05:14.390Z,9.94
2023-04-07T18:07:42.516Z,9.92
2023-04-07T18:10:12.252Z,9.87
2023-04-07T18:12:41.458Z,9.83
2023-04-07T18:15:10.124Z,9.79
2023-04-07T18:17:37.906Z,9.75
2023-04-07T18:20:06.300Z,9.73
2023-04-07T18:22:34.265Z,9.70
2023-04-07T18:25:02.252Z,9.68
2023-04-07T18:27:31.199Z,9.63
2023-04-07T18:29:58.790Z,9.61
2023-04-07T18:32:26.512Z,9.59
2023-04-07T18:34:54.758Z,9.55
2023-04-07T18:40:14.518Z,9.50
2023-04-07T18:42:43.573Z,9.47
2023-04-07T18:45:13.042Z,9.44
2023-04-07T18:47:41.572Z,9.42
2023-04-07T18:50:09.975Z,9.38
2023-04-07T18:52:38.405Z,9.35
2023-04-07T18:55:08.656Z,9.30
2023-04-07T18:57:36.315Z,9.26
2023-04-07T19:00:07.118Z,9.24
2023-04-07T19:02:34.805Z,9.19
2023-04-07T19:05:02.981Z,9.14
2023-04-07T19:07:30.547Z,9.08
2023-04-07T19:09:58.160Z,9.04
2023-04-07T19:12:27.197Z,8.99
2023-04-07T19:14:56.091Z,8.94
2023-04-07T19:17:26.048Z,8.88
2023-04-07T19:19:53.690Z,8.81
2023-04-07T19:22:21.485Z,8.75
2023-04-07T19:24:49.999Z,8.70
2023-04-07T19:27:17.873Z,8.63
2023-04-07T19:29:45.539Z,8.57
2023-04-07T19:32:14.030Z,8.50
2023-04-07T19:34:45.735Z,8.42
2023-04-07T19:37:13.335Z,8.36
2023-04-07T19:39:44.899Z,8.28
2023-04-07T19:42:17.790Z,8.20
2023-04-07T19:44:46.027Z,8.13
2023-04-07T19:47:13.547Z,8.06
2023-04-07T19:49:41.295Z,7.98
2023-04-07T19:52:10.439Z,7.89
2023-04-07T19:54:38.049Z,7.81
2023-04-07T19:57:05.615Z,7.73
2023-04-07T19:59:33.256Z,7.66
2023-04-07T20:02:00.958Z,7.58
2023-04-07T20:04:28.709Z,7.52
2023-04-07T20:06:56.420Z,7.44
2023-04-07T20:09:27.014Z,7.37
2023-04-07T20:11:54.664Z,7.32
2023-04-07T20:14:23.027Z,7.25
2023-04-07T20:16:50.667Z,7.16
2023-04-07T20:19:19.024Z,7.10
2023-04-07T20:21:46.573Z,7.04
2023-04-07T20:24:15.029Z,6.97
2023-04-07T20:26:44.812Z,6.90
2023-04-07T20:29:12.475Z,6.85
2023-04-07T20:31:41.120Z,6.79
2023-04-07T20:34:10.598Z,6.71
2023-04-07T20:36:38.160Z,6.63
2023-04-07T20:39:05.755Z,6.56
2023-04-07T20:41:34.144Z,6.51
2023-04-07T20:44:04.282Z,6.45
2023-04-07T20:46:32.312Z,6.40
2023-04-07T20:49:00.755Z,6.33
2023-04-07T20:51:28.769Z,6.27
2023-04-07T20:53:56.401Z,6.20
2023-04-07T20:56:24.056Z,6.15
2023-04-07T20:58:51.676Z,6.10
2023-04-07T21:01:21.085Z,6.06
2023-04-07T21:03:49.832Z,6.03
2023-04-07T21:06:18.409Z,5.96
2023-04-07T21:08:46.023Z,5.91
2023-04-07T21:11:15.448Z,5.84
2023-04-07T21:13:43.134Z,5.80
2023-04-07T21:16:12.603Z,5.75
2023-04-07T21:18:41.496Z,5.69
2023-04-07T21:21:09.095Z,5.63
2023-04-07T21:23:36.653Z,5.57
2023-04-07T21:26:05.465Z,5.54
2023-04-07T21:28:33.296Z,5.49
2023-04-07T21:31:01.198Z,5.44
2023-04-07T21:33:29.031Z,5.39
2023-04-07T21:35:58.440Z,5.34
2023-04-07T21:38:26.013Z,5.30
2023-04-07T21:40:56.008Z,5.26
2023-04-07T21:43:23.592Z,5.20
2023-04-07T21:45:51.247Z,5.15
2023-04-07T21:48:20.806Z,5.11
2023-04-07T21:50:48.436Z,5.04
2023-04-07T21:53:18.137Z,5.01
2023-04-07T21:55:45.994Z,4.93
2023-04-07T21:58:14.036Z,4.89
2023-04-07T22:00:41.747Z,4.84
2023-04-07T22:03:10.212Z,4.81
2023-04-07T22:05:37.831Z,4.75
2023-04-07T22:08:06.672Z,4.72
2023-04-07T22:10:37.135Z,4.68
2023-04-07T22:13:06.020Z,4.65
2023-04-07T22:15:33.547Z,4.62
2023-04-07T22:18:02.058Z,4.58
2023-04-07T22:20:29.652Z,4.54
2023-04-07T22:22:57.843Z,4.49
2023-04-07T22:25:26.124Z,4.47
2023-04-07T22:27:56.791Z,4.43
2023-04-07T22:30:25.428Z,4.40
2023-04-07T22:32:54.743Z,4.36
2023-04-07T22:35:22.454Z,4.32
2023-04-07T22:37:50.072Z,4.28
2023-04-07T22:40:19.174Z,4.26
2023-04-07T22:42:46.727Z,4.23
2023-04-07T22:45:16.011Z,4.18
2023-04-07T22:47:43.587Z,4.16
2023-04-07T22:50:11.799Z,4.14
2023-04-07T22:52:39.544Z,4.10
2023-04-07T22:55:08.787Z,4.09
2023-04-07T22:57:37.033Z,4.07
2023-04-07T23:00:05.158Z,4.04
2023-04-07T23:02:34.167Z,4.01
2023-04-07T23:05:03.020Z,3.98
2023-04-07T23:07:30.566Z,3.94
2023-04-07T23:09:58.724Z,3.91
2023-04-07T23:12:26.247Z,3.89
2023-04-07T23:14:53.882Z,3.88
2023-04-07T23:17:21.525Z,3.84
2023-04-07T23:19:51.927Z,3.84
2023-04-07T23:22:19.617Z,3.84
2023-04-07T23:24:48.151Z,3.84
2023-04-07T23:27:16.595Z,3.82
2023-04-07T23:29:44.452Z,3.81
2023-04-07T23:32:12.489Z,3.79
2023-04-07T23:34:41.334Z,3.77
2023-04-07T23:37:10.406Z,3.76
2023-04-07T23:39:40.018Z,3.73
2023-04-07T23:42:07.773Z,3.72
2023-04-07T23:44:35.408Z,3.71
2023-04-07T23:47:03.486Z,3.72
2023-04-07T23:49:31.287Z,3.72
2023-04-07T23:51:59.052Z,3.72
2023-04-07T23:54:28.105Z,3.72
2023-04-07T23:56:57.134Z,3.71
2023-04-07T23:59:24.792Z,3.72
